Lynn, Nebraska
Current Conditions -  °F | °C
As of 1:53 AM on Tuesday 21 Oct 2014 (Local Time) from KHSI Reporting Station
Clear Clear  
Wind Chill: 53°   Ceiling: Unl
Heat Index: 53°   Visibility: 10mi
Dew Point: 39°   Wind: 7mph
Humidity: 59%   Direction: 180°S
Pressure: 30.07"   Gusts: NA
Location:  40.4815°N, 97.9942°W
Report Text: KHSI 210653Z AUTO 18006KT 10SM CLR 12/04 A3007 RMK AO2 SLP175 T01170039
Loading
Personal Weather Stations






























Interactive Weather Map New forecast layout! Learn more

10-Day Weather Forecast

Advertisements
Track Severe Weather on mobile